Time;durP1;ratioP1;P1;durP2;ratioP2;P2;SDS_P1;SDS_P2;PMS_P1;PMS_P2;Temp;Humidity;BMP_temperature;BMP_pressure;BME280_temperature;BME280_humidity;BME280_pressure;Samples;Min_cycle;Max_cycle;Signal;HPM_P1;HPM_P2
2022/11/13 00:00:54;;;;;;;10.50;7.55;;;7.20;99.90;;;;;;6276624;22;20011;-84
2022/11/13 00:03:20;;;;;;;11.50;7.68;;;7.20;99.90;;;;;;6248618;22;20444;-84
2022/11/13 00:05:46;;;;;;;12.32;8.07;;;7.20;99.90;;;;;;6276382;22;20090;-84
2022/11/13 00:08:11;;;;;;;14.82;8.30;;;7.10;99.90;;;;;;6249546;22;20409;-84
2022/11/13 00:10:37;;;;;;;11.48;8.20;;;7.20;99.90;;;;;;6275949;22;20082;-84
2022/11/13 00:13:03;;;;;;;12.45;8.40;;;7.10;99.90;;;;;;6249329;22;20057;-84
2022/11/13 00:15:28;;;;;;;10.60;7.07;;;7.10;99.90;;;;;;6276164;22;20440;-84
2022/11/13 00:17:54;;;;;;;12.00;7.40;;;7.10;99.90;;;;;;6248495;22;20011;-84
2022/11/13 00:20:19;;;;;;;10.63;7.88;;;7.10;99.90;;;;;;6249719;22;20011;-84
2022/11/13 00:22:45;;;;;;;10.70;8.10;;;7.10;99.90;;;;;;6249021;22;20057;-84
2022/11/13 00:25:11;;;;;;;10.70;7.97;;;7.10;99.90;;;;;;6276188;22;20395;-84
2022/11/13 00:27:36;;;;;;;10.60;7.70;;;7.10;99.90;;;;;;6249407;22;20347;-84
2022/11/13 00:30:03;;;;;;;10.38;7.80;;;7.10;99.90;;;;;;6248448;22;20478;-84
2022/11/13 00:32:29;;;;;;;10.73;7.70;;;7.00;99.90;;;;;;6248903;22;20026;-84
2022/11/13 00:34:54;;;;;;;11.00;7.60;;;7.10;99.90;;;;;;6249219;22;20015;-84
2022/11/13 00:37:20;;;;;;;12.40;8.07;;;7.10;99.90;;;;;;6276018;22;20436;-84
2022/11/13 00:39:45;;;;;;;12.05;7.68;;;7.00;99.90;;;;;;6249106;22;20012;-84
2022/11/13 00:42:11;;;;;;;10.90;7.78;;;7.10;99.90;;;;;;6249001;22;20478;-84
2022/11/13 00:44:36;;;;;;;11.73;7.95;;;7.10;99.90;;;;;;6275526;22;20023;-84
2022/11/13 00:47:02;;;;;;;10.93;7.70;;;7.10;99.90;;;;;;6249086;22;20344;-84
2022/11/13 00:49:28;;;;;;;11.18;7.55;;;7.10;99.90;;;;;;6249356;22;20020;-84
2022/11/13 00:51:53;;;;;;;11.13;7.85;;;7.10;99.90;;;;;;6275488;22;20090;-84
2022/11/13 00:54:19;;;;;;;11.35;7.88;;;7.00;99.90;;;;;;6276473;22;20086;-83
2022/11/13 00:56:44;;;;;;;10.27;7.38;;;7.10;99.90;;;;;;6248530;22;20023;-84
2022/11/13 00:59:10;;;;;;;10.90;7.88;;;7.10;99.90;;;;;;6275720;22;20383;-84
2022/11/13 01:01:35;;;;;;;12.68;8.18;;;7.00;99.90;;;;;;6248835;22;20068;-84
2022/11/13 01:04:01;;;;;;;10.82;7.80;;;7.00;99.90;;;;;;6249097;22;20019;-83
2022/11/13 01:06:27;;;;;;;11.52;7.82;;;7.10;99.90;;;;;;6247997;22;20324;-83
2022/11/13 01:08:54;;;;;;;11.07;7.38;;;7.00;99.90;;;;;;6248801;22;20515;-83
2022/11/13 01:11:22;;;;;;;10.20;7.18;;;7.00;99.90;;;;;;6274692;22;20011;-83
2022/11/13 01:13:50;;;;;;;12.25;8.50;;;7.00;99.90;;;;;;6248188;22;20050;-83
2022/11/13 01:16:17;;;;;;;11.35;8.10;;;7.00;99.90;;;;;;6276826;22;20012;-83
2022/11/13 01:18:43;;;;;;;11.52;8.00;;;7.00;99.90;;;;;;6275945;22;20051;-83
2022/11/13 01:21:11;;;;;;;11.68;7.70;;;7.00;99.90;;;;;;6275904;22;20019;-83
2022/11/13 01:23:37;;;;;;;11.15;7.90;;;7.00;99.90;;;;;;6275655;22;20016;-83
2022/11/13 01:26:13;;;;;;;11.75;7.97;;;7.10;99.90;;;;;;6276171;22;20336;-83
2022/11/13 01:28:40;;;;;;;11.38;7.93;;;7.00;99.90;;;;;;6249008;22;20015;-83
2022/11/13 01:31:08;;;;;;;10.70;7.63;;;7.10;99.90;;;;;;6248798;22;20012;-83
2022/11/13 01:33:34;;;;;;;10.63;7.78;;;7.00;99.90;;;;;;6247613;22;20011;-83
2022/11/13 01:36:05;;;;;;;11.48;7.90;;;7.00;99.90;;;;;;6276811;22;20016;-83
2022/11/13 01:38:32;;;;;;;10.90;7.80;;;7.10;99.90;;;;;;6248344;22;20019;-83
2022/11/13 01:40:57;;;;;;;10.98;8.23;;;7.00;99.90;;;;;;6275508;22;20012;-83
2022/11/13 01:43:32;;;;;;;11.57;8.25;;;7.10;99.90;;;;;;6248380;22;20066;-83
2022/11/13 01:45:58;;;;;;;12.88;7.97;;;7.10;99.90;;;;;;6249306;22;20012;-83
2022/11/13 01:48:45;;;;;;;10.52;7.13;;;7.10;99.90;;;;;;6248157;22;20317;-83
2022/11/13 01:51:16;;;;;;;11.13;7.93;;;7.10;99.90;;;;;;6248371;22;20074;-83
2022/11/13 01:53:44;;;;;;;10.65;7.75;;;7.00;99.90;;;;;;6248228;22;20086;-83
2022/11/13 01:56:10;;;;;;;10.02;7.78;;;7.10;99.90;;;;;;6275390;22;20094;-83
2022/11/13 01:58:37;;;;;;;17.00;9.02;;;7.10;99.90;;;;;;6248417;22;20622;-83
2022/11/13 02:01:03;;;;;;;11.50;8.50;;;7.10;99.90;;;;;;6274604;22;20011;-83
2022/11/13 02:03:28;;;;;;;10.88;8.25;;;7.10;99.90;;;;;;6247462;22;20447;-83
2022/11/13 02:05:55;;;;;;;12.32;8.80;;;7.10;99.90;;;;;;6248669;22;20016;-83
2022/11/13 02:08:20;;;;;;;10.60;8.30;;;7.00;99.90;;;;;;6247783;22;20011;-83
2022/11/13 02:10:46;;;;;;;10.45;8.52;;;7.10;99.90;;;;;;6276067;22;20019;-83
2022/11/13 02:13:13;;;;;;;10.48;8.18;;;7.10;99.90;;;;;;6248835;22;20039;-83
2022/11/13 02:15:40;;;;;;;13.65;9.02;;;7.10;99.90;;;;;;6275258;22;20342;-83
2022/11/13 02:18:06;;;;;;;11.70;8.43;;;7.10;99.90;;;;;;6248653;22;20027;-83
2022/11/13 02:21:04;;;;;;;12.88;8.25;;;7.10;99.90;;;;;;6249029;22;20011;-83
2022/11/13 02:23:42;;;;;;;11.88;8.45;;;7.10;99.90;;;;;;6247843;22;20020;-83
2022/11/13 02:26:09;;;;;;;12.23;9.05;;;7.10;99.90;;;;;;6248840;22;20015;-83
2022/11/13 02:28:35;;;;;;;12.20;8.85;;;7.10;99.90;;;;;;6276927;22;20015;-83
2022/11/13 02:31:09;;;;;;;11.55;8.45;;;7.10;99.90;;;;;;6249218;22;20026;-83
2022/11/13 02:33:34;;;;;;;12.43;8.18;;;7.10;99.90;;;;;;6277603;22;20012;-83
2022/11/13 02:36:01;;;;;;;11.32;8.65;;;7.10;99.90;;;;;;6250721;22;20130;-83
2022/11/13 02:38:26;;;;;;;11.75;9.00;;;7.10;99.90;;;;;;6248965;22;20459;-83
2022/11/13 02:40:52;;;;;;;12.00;8.57;;;7.10;99.90;;;;;;6249886;22;20026;-83
2022/11/13 02:43:18;;;;;;;12.18;9.07;;;7.10;99.90;;;;;;6277088;22;20012;-83
2022/11/13 02:45:43;;;;;;;12.32;9.73;;;7.10;99.90;;;;;;6248948;22;20023;-83
2022/11/13 02:48:09;;;;;;;12.70;9.23;;;7.20;99.90;;;;;;6250425;22;20448;-82
2022/11/13 02:50:36;;;;;;;12.70;9.07;;;7.10;99.90;;;;;;6248912;22;20019;-83
2022/11/13 02:53:03;;;;;;;12.57;9.85;;;7.10;99.90;;;;;;6250851;22;20016;-83
2022/11/13 02:55:28;;;;;;;11.98;9.18;;;7.20;99.90;;;;;;6250443;22;20015;-83
2022/11/13 02:57:54;;;;;;;12.68;9.35;;;7.20;99.90;;;;;;6276530;22;20305;-83
2022/11/13 03:00:19;;;;;;;13.52;9.95;;;7.10;99.90;;;;;;6250250;22;20023;-83
2022/11/13 03:02:45;;;;;;;13.85;9.85;;;7.10;99.90;;;;;;6277115;22;20375;-83
2022/11/13 03:05:10;;;;;;;14.98;9.70;;;7.20;99.90;;;;;;6249216;22;20047;-83
2022/11/13 03:07:36;;;;;;;12.32;9.70;;;7.20;99.90;;;;;;6277357;22;20008;-83
2022/11/13 03:10:02;;;;;;;13.80;9.60;;;7.20;99.90;;;;;;6277462;22;20019;-83
2022/11/13 03:12:28;;;;;;;14.32;10.07;;;7.20;99.90;;;;;;6276389;22;20015;-83
2022/11/13 03:14:53;;;;;;;13.43;9.73;;;7.20;99.90;;;;;;6249743;22;20008;-83
2022/11/13 03:17:19;;;;;;;12.82;9.57;;;7.10;99.90;;;;;;6277576;22;20027;-83
2022/11/13 03:19:44;;;;;;;12.20;9.80;;;7.10;99.90;;;;;;6248673;22;20011;-83
2022/11/13 03:22:10;;;;;;;12.85;9.48;;;7.10;99.90;;;;;;6250116;22;20513;-83
2022/11/13 03:24:36;;;;;;;11.98;9.10;;;7.10;99.90;;;;;;6277249;22;20328;-83
2022/11/13 03:27:01;;;;;;;14.40;9.23;;;7.10;99.90;;;;;;6276587;22;20007;-83
2022/11/13 03:29:27;;;;;;;12.65;9.65;;;7.10;99.90;;;;;;6276021;22;20023;-83
2022/11/13 03:31:52;;;;;;;13.18;9.73;;;7.10;99.90;;;;;;6248965;22;20011;-83
2022/11/13 03:34:18;;;;;;;13.57;9.75;;;7.10;99.90;;;;;;6276676;22;20008;-83
2022/11/13 03:36:44;;;;;;;12.50;9.30;;;7.10;99.90;;;;;;6249967;22;20336;-83
2022/11/13 03:39:09;;;;;;;13.38;10.05;;;7.10;99.90;;;;;;6277675;22;20379;-83
2022/11/13 03:41:35;;;;;;;13.90;10.00;;;7.10;99.90;;;;;;6247956;22;20436;-84
2022/11/13 03:44:00;;;;;;;13.63;10.82;;;7.10;99.90;;;;;;6277387;22;20023;-83
2022/11/13 03:46:26;;;;;;;12.80;9.05;;;7.10;99.90;;;;;;6249865;22;20340;-83
2022/11/13 03:48:52;;;;;;;13.70;10.35;;;7.10;99.90;;;;;;6248939;22;20042;-83
2022/11/13 03:51:17;;;;;;;13.55;10.25;;;7.10;99.90;;;;;;6249913;22;20440;-83
2022/11/13 03:53:43;;;;;;;12.35;9.90;;;7.10;99.90;;;;;;6276902;22;20141;-83
2022/11/13 03:56:08;;;;;;;13.77;9.88;;;7.10;99.90;;;;;;6248483;22;20106;-84
2022/11/13 03:58:34;;;;;;;13.95;10.52;;;7.10;99.90;;;;;;6249749;22;20027;-83
2022/11/13 04:00:59;;;;;;;14.07;10.13;;;7.10;99.90;;;;;;6276108;22;20086;-83
2022/11/13 04:03:25;;;;;;;13.05;10.13;;;7.10;99.90;;;;;;6277201;22;20068;-83
2022/11/13 04:05:51;;;;;;;13.15;9.93;;;7.10;99.90;;;;;;6249650;22;20158;-83
2022/11/13 04:08:17;;;;;;;13.10;10.27;;;7.10;99.90;;;;;;6248829;22;20023;-83
2022/11/13 04:10:44;;;;;;;13.45;10.40;;;7.10;99.90;;;;;;6276853;22;20020;-84
2022/11/13 04:13:10;;;;;;;13.20;10.40;;;7.10;99.90;;;;;;6276883;22;20095;-84
2022/11/13 04:15:35;;;;;;;13.82;9.85;;;7.10;99.90;;;;;;6275879;22;20066;-84
2022/11/13 04:18:01;;;;;;;11.90;9.80;;;7.00;99.90;;;;;;6249089;22;20012;-84
2022/11/13 04:20:27;;;;;;;15.57;10.48;;;7.10;99.90;;;;;;6249767;22;20016;-84
2022/11/13 04:22:54;;;;;;;13.02;9.93;;;7.10;99.90;;;;;;6275346;22;20022;-83
2022/11/13 04:25:20;;;;;;;14.30;10.52;;;7.00;99.90;;;;;;6250036;22;20466;-84
2022/11/13 04:27:47;;;;;;;13.07;10.27;;;7.00;99.90;;;;;;6248866;22;20016;-84
2022/11/13 04:30:13;;;;;;;12.13;9.80;;;7.00;99.90;;;;;;6275751;22;20439;-83
2022/11/13 04:32:38;;;;;;;15.23;10.52;;;7.00;99.90;;;;;;6249380;22;20023;-84
2022/11/13 04:35:04;;;;;;;14.18;10.20;;;7.00;99.90;;;;;;6276531;22;20042;-84
2022/11/13 04:37:30;;;;;;;15.45;10.38;;;7.00;99.90;;;;;;6274774;22;20455;-84
2022/11/13 04:39:55;;;;;;;13.32;10.32;;;7.00;99.90;;;;;;6276556;22;20023;-84
2022/11/13 04:45:06;;;;;;;13.52;10.50;;;7.00;99.90;;;;;;6248746;22;20020;-83
2022/11/13 04:47:31;;;;;;;14.05;10.52;;;7.00;99.90;;;;;;6276308;22;20095;-83
2022/11/13 04:49:57;;;;;;;13.38;10.70;;;7.00;99.90;;;;;;6248916;22;20459;-84
2022/11/13 04:52:22;;;;;;;15.20;10.70;;;7.00;99.90;;;;;;6275145;22;20012;-84
2022/11/13 04:54:48;;;;;;;15.18;11.57;;;6.90;99.90;;;;;;6276506;22;20090;-83
2022/11/13 04:57:13;;;;;;;15.25;10.43;;;6.90;99.90;;;;;;6248914;22;20023;-84
2022/11/13 04:59:39;;;;;;;14.48;10.40;;;7.00;99.90;;;;;;6249162;22;20015;-84
2022/11/13 05:02:05;;;;;;;12.85;10.40;;;6.90;99.90;;;;;;6249949;22;20094;-84
2022/11/13 05:04:30;;;;;;;14.18;10.80;;;7.00;99.90;;;;;;6275456;22;20020;-84
2022/11/13 05:06:56;;;;;;;12.95;10.43;;;7.00;99.90;;;;;;6248987;22;20016;-84
2022/11/13 05:09:22;;;;;;;13.32;10.05;;;7.00;99.90;;;;;;6276466;22;20487;-83
2022/11/13 05:11:47;;;;;;;13.85;10.93;;;6.90;99.90;;;;;;6275203;22;20012;-84
2022/11/13 05:14:13;;;;;;;13.85;10.38;;;6.90;99.90;;;;;;6248942;22;20443;-83
2022/11/13 05:16:39;;;;;;;14.32;10.57;;;6.90;99.90;;;;;;6248870;22;20015;-84
2022/11/13 05:19:07;;;;;;;12.00;9.90;;;6.90;99.90;;;;;;6248350;22;20521;-84
2022/11/13 05:21:35;;;;;;;13.00;10.25;;;6.90;99.90;;;;;;6276472;22;20348;-84
2022/11/13 05:24:01;;;;;;;13.57;10.65;;;6.90;99.90;;;;;;6276656;22;20018;-84
2022/11/13 05:26:27;;;;;;;14.98;10.32;;;6.90;99.90;;;;;;6247951;22;20069;-84
2022/11/13 05:28:55;;;;;;;12.40;10.10;;;6.90;99.90;;;;;;6248599;22;20011;-84
2022/11/13 05:31:20;;;;;;;12.93;10.18;;;6.90;99.90;;;;;;6249740;22;20016;-84
2022/11/13 05:33:46;;;;;;;14.02;10.20;;;6.90;99.90;;;;;;6247895;22;20022;-84
2022/11/13 05:36:14;;;;;;;15.05;10.75;;;6.90;99.90;;;;;;6248997;22;20019;-84
2022/11/13 05:38:40;;;;;;;12.35;9.90;;;6.90;99.90;;;;;;6248722;22;20348;-85
2022/11/13 05:41:07;;;;;;;12.88;10.13;;;6.90;99.90;;;;;;6247783;22;20003;-84
2022/11/13 05:43:34;;;;;;;13.75;10.20;;;6.90;99.90;;;;;;6249127;22;20329;-84
2022/11/13 05:46:04;;;;;;;13.10;10.38;;;6.90;99.90;;;;;;6276505;22;20011;-84
2022/11/13 05:48:30;;;;;;;13.82;10.60;;;6.90;99.90;;;;;;6275745;22;20061;-83
2022/11/13 05:51:05;;;;;;;11.32;9.27;;;6.80;99.90;;;;;;6248694;22;20015;-84
2022/11/13 05:53:32;;;;;;;14.90;9.93;;;6.80;99.90;;;;;;6248144;22;20023;-83
2022/11/13 05:56:03;;;;;;;13.57;10.15;;;6.80;99.90;;;;;;6276357;22;20087;-84
2022/11/13 05:58:29;;;;;;;13.18;9.57;;;6.80;99.90;;;;;;6249399;22;20509;-83
2022/11/13 06:01:14;;;;;;;15.57;10.02;;;6.80;99.90;;;;;;6274641;22;20050;-83
2022/11/13 06:03:40;;;;;;;13.63;9.80;;;6.80;99.90;;;;;;6276297;22;20031;-84
2022/11/13 06:06:07;;;;;;;13.20;10.07;;;6.80;99.90;;;;;;6278395;22;20107;-84
2022/11/13 06:08:33;;;;;;;13.27;10.10;;;6.80;99.90;;;;;;6277151;22;20011;-84
2022/11/13 06:11:00;;;;;;;14.32;10.02;;;6.80;99.90;;;;;;6276832;22;20105;-83
2022/11/13 06:13:26;;;;;;;14.65;10.15;;;6.80;99.90;;;;;;6250801;22;20099;-84
2022/11/13 06:15:52;;;;;;;13.55;9.77;;;6.70;99.90;;;;;;6276590;22;20061;-84
2022/11/13 06:18:22;;;;;;;13.65;10.15;;;6.70;99.90;;;;;;6250970;22;20011;-84
2022/11/13 06:20:48;;;;;;;14.80;11.10;;;6.70;99.90;;;;;;6249898;22;20308;-84
2022/11/13 06:23:13;;;;;;;12.13;9.40;;;6.70;99.90;;;;;;6276755;22;20016;-84
2022/11/13 06:25:39;;;;;;;13.90;9.90;;;6.70;99.90;;;;;;6278276;22;20327;-84
2022/11/13 06:28:05;;;;;;;12.23;9.55;;;6.70;99.90;;;;;;6250673;22;20015;-84
2022/11/13 06:30:30;;;;;;;12.57;9.18;;;6.70;99.90;;;;;;6277250;22;20440;-84
2022/11/13 06:32:56;;;;;;;13.13;9.35;;;6.60;99.90;;;;;;6277800;22;20090;-84
2022/11/13 06:35:21;;;;;;;12.55;9.68;;;6.60;99.90;;;;;;6250127;22;20019;-83
2022/11/13 06:37:47;;;;;;;11.57;9.43;;;6.60;99.90;;;;;;6276498;22;20082;-82
2022/11/13 06:40:13;;;;;;;12.80;9.48;;;6.60;99.90;;;;;;6250654;22;20398;-82
2022/11/13 06:42:38;;;;;;;13.20;10.10;;;6.60;99.90;;;;;;6249131;22;20016;-83
2022/11/13 06:45:04;;;;;;;12.95;9.52;;;6.60;99.90;;;;;;6250002;22;20531;-83
2022/11/13 06:47:30;;;;;;;12.63;9.93;;;6.60;99.90;;;;;;6275837;22;20016;-83
2022/11/13 06:49:56;;;;;;;12.48;9.60;;;6.50;99.90;;;;;;6275469;22;20519;-82
2022/11/13 06:52:21;;;;;;;11.80;9.30;;;6.50;99.90;;;;;;6249688;22;20022;-83
2022/11/13 06:54:47;;;;;;;13.13;9.65;;;6.50;99.90;;;;;;6277561;22;20015;-84
2022/11/13 06:57:12;;;;;;;14.27;9.75;;;6.50;99.90;;;;;;6251252;22;20436;-95
2022/11/13 06:59:38;;;;;;;12.85;9.65;;;6.50;99.90;;;;;;6252504;22;20012;-94
2022/11/13 07:02:04;;;;;;;12.15;9.45;;;6.50;99.90;;;;;;6280021;22;20023;-94
2022/11/13 07:04:30;;;;;;;11.38;9.35;;;6.50;99.90;;;;;;6252879;22;20026;-94
2022/11/13 07:06:55;;;;;;;13.00;9.77;;;6.50;99.90;;;;;;6250733;22;20530;-83
2022/11/13 07:09:21;;;;;;;12.27;9.32;;;6.40;99.90;;;;;;6250286;22;20066;-82
2022/11/13 07:11:46;;;;;;;12.48;9.98;;;6.40;99.90;;;;;;6248295;22;20050;-82
2022/11/13 07:14:12;;;;;;;13.85;9.75;;;6.40;99.90;;;;;;6277661;22;20023;-82
2022/11/13 07:16:38;;;;;;;14.20;10.63;;;6.40;99.90;;;;;;6277532;22;20011;-82
2022/11/13 07:19:03;;;;;;;12.90;9.60;;;6.40;99.90;;;;;;6275691;22;20090;-82
2022/11/13 07:21:29;;;;;;;12.13;9.70;;;6.40;99.90;;;;;;6276317;22;20023;-83
2022/11/13 07:23:56;;;;;;;12.43;9.75;;;6.40;99.90;;;;;;6248490;22;20055;-82
2022/11/13 07:26:21;;;;;;;12.60;9.52;;;6.40;99.90;;;;;;6247584;22;20014;-81
2022/11/13 07:28:48;;;;;;;15.40;9.63;;;6.40;99.90;;;;;;6275550;22;20095;-82
2022/11/13 07:31:15;;;;;;;11.73;8.88;;;6.30;99.90;;;;;;6248539;22;20448;-82
2022/11/13 07:33:41;;;;;;;13.27;9.85;;;6.30;99.90;;;;;;6247427;22;20020;-82
2022/11/13 07:36:08;;;;;;;12.82;9.73;;;6.30;99.90;;;;;;6248811;22;20019;-82
2022/11/13 07:38:34;;;;;;;13.80;9.77;;;6.30;99.90;;;;;;6275694;22;20051;-82
2022/11/13 07:41:00;;;;;;;13.60;10.10;;;6.30;99.90;;;;;;6247884;22;20074;-82
2022/11/13 07:43:25;;;;;;;12.68;9.45;;;6.30;99.90;;;;;;6275722;22;20455;-82
2022/11/13 07:45:53;;;;;;;12.75;9.52;;;6.30;99.90;;;;;;6275751;22;20016;-82
2022/11/13 07:48:20;;;;;;;12.73;9.38;;;6.30;99.90;;;;;;6248088;22;20463;-82
2022/11/13 07:50:46;;;;;;;12.23;8.65;;;6.30;99.90;;;;;;6248403;22;20022;-82
2022/11/13 07:53:12;;;;;;;13.73;9.10;;;6.20;99.90;;;;;;6248120;22;20016;-82
2022/11/13 07:55:37;;;;;;;11.20;8.32;;;6.30;99.90;;;;;;6248941;22;20020;-83
2022/11/13 07:58:04;;;;;;;12.90;9.85;;;6.30;99.90;;;;;;6249730;22;20019;-82
2022/11/13 08:00:31;;;;;;;13.02;9.70;;;6.20;99.90;;;;;;6276836;22;20014;-82
2022/11/13 08:02:58;;;;;;;12.70;9.50;;;6.30;99.90;;;;;;6249462;22;20081;-82
2022/11/13 08:05:23;;;;;;;12.27;9.35;;;6.20;99.90;;;;;;6276814;22;20091;-82
2022/11/13 08:07:50;;;;;;;13.77;9.68;;;6.30;99.90;;;;;;6275555;22;20058;-81
2022/11/13 08:10:18;;;;;;;15.77;9.75;;;6.30;99.90;;;;;;6251656;22;20011;-82
2022/11/13 08:12:44;;;;;;;12.57;9.90;;;6.30;99.90;;;;;;6249563;22;20440;-82
2022/11/13 08:15:10;;;;;;;11.68;9.15;;;6.30;99.90;;;;;;6278925;22;20046;-81
2022/11/13 08:17:37;;;;;;;13.30;9.40;;;6.30;99.90;;;;;;6252633;22;20034;-79
2022/11/13 08:20:04;;;;;;;11.00;8.25;;;6.30;99.90;;;;;;6252084;22;20008;-81
2022/11/13 08:22:30;;;;;;;12.85;8.93;;;6.30;99.90;;;;;;6249968;22;20015;-81
2022/11/13 08:24:56;;;;;;;12.95;8.82;;;6.30;99.90;;;;;;6278695;22;20431;-81
2022/11/13 08:27:23;;;;;;;12.38;9.00;;;6.40;99.90;;;;;;6250519;22;20119;-82
2022/11/13 08:29:49;;;;;;;12.98;9.05;;;6.40;99.90;;;;;;6250320;22;20023;-81
2022/11/13 08:32:16;;;;;;;12.23;9.00;;;6.40;99.90;;;;;;6278654;22;20023;-83
2022/11/13 08:34:42;;;;;;;11.18;8.80;;;6.40;99.90;;;;;;6279235;22;20083;-81
2022/11/13 08:37:08;;;;;;;11.30;8.88;;;6.40;99.90;;;;;;6249945;22;20023;-81
2022/11/13 08:39:34;;;;;;;13.00;9.05;;;6.50;99.90;;;;;;6249773;22;20121;-81
2022/11/13 08:42:01;;;;;;;13.23;9.07;;;6.50;99.90;;;;;;6252006;22;20019;-81
2022/11/13 08:44:26;;;;;;;11.82;8.75;;;6.50;99.90;;;;;;6276676;22;20110;-81
2022/11/13 08:46:52;;;;;;;14.48;9.05;;;6.60;99.90;;;;;;6276719;22;20051;-81
2022/11/13 08:49:17;;;;;;;12.05;9.00;;;6.60;99.90;;;;;;6276357;22;20090;-81
2022/11/13 08:51:43;;;;;;;14.30;10.32;;;6.60;99.90;;;;;;6250480;22;20011;-81
2022/11/13 08:54:09;;;;;;;12.98;8.98;;;6.70;99.90;;;;;;6278799;22;20043;-81
2022/11/13 08:56:34;;;;;;;13.10;9.38;;;6.70;99.90;;;;;;6250928;22;20012;-81
2022/11/13 08:59:00;;;;;;;11.38;8.63;;;6.80;99.90;;;;;;6277717;22;20470;-81
2022/11/13 09:01:25;;;;;;;12.40;9.10;;;6.80;99.90;;;;;;6251955;22;20410;-81
2022/11/13 09:03:51;;;;;;;11.70;9.23;;;6.80;99.90;;;;;;6248528;22;20015;-81
2022/11/13 09:06:16;;;;;;;11.70;8.88;;;6.90;99.90;;;;;;6249164;22;20015;-80
2022/11/13 09:08:42;;;;;;;12.52;9.18;;;6.90;99.90;;;;;;6249810;22;20015;-81
2022/11/13 09:11:08;;;;;;;14.20;9.32;;;7.00;99.90;;;;;;6275540;22;20407;-81
2022/11/13 09:13:34;;;;;;;13.43;8.70;;;7.00;99.90;;;;;;6249080;22;20015;-81
2022/11/13 09:16:01;;;;;;;10.70;8.32;;;7.10;99.90;;;;;;6249457;22;20066;-81
2022/11/13 09:18:27;;;;;;;11.57;9.15;;;7.20;99.90;;;;;;6248981;22;20023;-81
2022/11/13 09:20:53;;;;;;;10.80;8.23;;;7.20;99.90;;;;;;6250871;22;20363;-82
2022/11/13 09:23:20;;;;;;;11.73;7.97;;;7.30;99.90;;;;;;6249273;22;20027;-81
2022/11/13 09:25:46;;;;;;;12.30;8.63;;;7.40;99.90;;;;;;6248403;22;20019;-82
2022/11/13 09:28:12;;;;;;;10.77;8.23;;;7.40;99.90;;;;;;6276247;22;20016;-80
2022/11/13 09:30:39;;;;;;;11.43;8.43;;;7.50;99.90;;;;;;6275795;22;20011;-82
2022/11/13 09:33:06;;;;;;;12.50;8.75;;;7.50;99.90;;;;;;6247278;22;20079;-81
2022/11/13 09:35:35;;;;;;;12.82;8.27;;;7.50;99.90;;;;;;6275954;22;20019;-80
2022/11/13 09:38:08;;;;;;;10.80;8.40;;;7.60;99.90;;;;;;6276893;22;20024;-82
2022/11/13 09:40:39;;;;;;;10.70;8.57;;;7.70;99.90;;;;;;6248559;22;20022;-82
2022/11/13 09:43:19;;;;;;;12.20;8.52;;;7.70;99.90;;;;;;6278301;22;20310;-81
2022/11/13 09:45:46;;;;;;;10.95;8.27;;;7.80;99.90;;;;;;6278400;22;20026;-81
2022/11/13 09:48:32;;;;;;;10.45;8.27;;;7.90;99.90;;;;;;6251266;22;20004;-82
2022/11/13 09:51:02;;;;;;;10.02;7.72;;;7.90;99.90;;;;;;6251646;22;20022;-81
2022/11/13 09:53:35;;;;;;;11.57;8.30;;;7.90;99.90;;;;;;6250774;22;20016;-81
2022/11/13 09:56:00;;;;;;;12.63;9.02;;;8.00;99.90;;;;;;6281070;22;20014;-81
2022/11/13 09:58:47;;;;;;;11.88;9.10;;;8.10;99.90;;;;;;6279456;22;20490;-82
2022/11/13 10:01:37;;;;;;;11.27;8.07;;;8.10;99.90;;;;;;6278661;22;20052;-81
2022/11/13 10:04:10;;;;;;;12.25;8.93;;;8.20;99.90;;;;;;6236293;22;20451;-82
2022/11/13 10:06:42;;;;;;;11.80;8.73;;;8.20;99.90;;;;;;6278476;22;20016;-82
2022/11/13 10:09:10;;;;;;;11.68;8.32;;;8.30;99.90;;;;;;6279141;22;20478;-82
2022/11/13 10:12:06;;;;;;;11.48;8.18;;;8.40;99.90;;;;;;6250943;22;20012;-82
2022/11/13 10:14:44;;;;;;;11.15;7.88;;;8.40;99.90;;;;;;6233108;22;20023;-82
2022/11/13 10:17:39;;;;;;;10.18;8.00;;;8.50;99.90;;;;;;6253544;22;20034;-82
2022/11/13 10:20:11;;;;;;;10.85;8.00;;;8.50;99.90;;;;;;6252100;22;20079;-82
2022/11/13 10:22:48;;;;;;;10.70;7.78;;;8.60;99.90;;;;;;6278539;22;20016;-82
2022/11/13 10:25:18;;;;;;;12.35;7.90;;;8.70;99.90;;;;;;6281916;22;20339;-82
2022/11/13 10:27:54;;;;;;;10.98;7.63;;;8.70;99.90;;;;;;6251758;22;20023;-82
2022/11/13 10:30:20;;;;;;;10.27;7.78;;;8.80;99.90;;;;;;6253155;22;20020;-82
2022/11/13 10:32:46;;;;;;;14.10;7.90;;;8.80;99.90;;;;;;6251750;22;20014;-82
2022/11/13 10:35:21;;;;;;;10.02;7.85;;;8.90;99.90;;;;;;6279862;22;20034;-82
2022/11/13 10:38:01;;;;;;;10.07;7.30;;;8.90;99.90;;;;;;6251987;22;20462;-82
2022/11/13 10:40:33;;;;;;;9.05;7.43;;;9.00;99.90;;;;;;6251679;22;20058;-82
2022/11/13 10:43:17;;;;;;;9.73;7.53;;;9.00;99.90;;;;;;6250330;22;20012;-82
2022/11/13 10:46:02;;;;;;;10.18;7.65;;;9.10;99.90;;;;;;6251092;22;20031;-82
2022/11/13 10:48:30;;;;;;;10.45;7.20;;;9.10;99.90;;;;;;6278809;22;20034;-82
2022/11/13 10:50:59;;;;;;;10.30;6.80;;;9.20;99.90;;;;;;6253101;22;20060;-82
2022/11/13 10:53:27;;;;;;;9.25;6.95;;;9.30;99.90;;;;;;6251644;22;20011;-82
2022/11/13 10:55:58;;;;;;;8.85;6.50;;;9.30;99.90;;;;;;6249857;22;20043;-82
2022/11/13 10:58:23;;;;;;;9.25;6.82;;;9.40;99.90;;;;;;6279768;22;20091;-82
2022/11/13 11:00:49;;;;;;;10.48;6.43;;;9.50;99.90;;;;;;6251394;22;20020;-82
2022/11/13 11:03:23;;;;;;;9.93;6.32;;;9.50;99.90;;;;;;6251277;22;20502;-82
2022/11/13 11:05:53;;;;;;;7.95;6.07;;;9.70;99.90;;;;;;6250475;22;20482;-83
2022/11/13 11:08:23;;;;;;;9.80;6.63;;;9.70;99.90;;;;;;6250867;22;20026;-82
2022/11/13 11:14:26;;;;;;;8.73;6.15;;;9.90;99.80;;;;;;6250943;22;20494;-82
2022/11/13 11:16:53;;;;;;;9.43;6.47;;;9.90;99.70;;;;;;6251122;22;20022;-82
2022/11/13 11:19:23;;;;;;;9.95;6.40;;;10.00;99.90;;;;;;6250275;22;20039;-82
2022/11/13 11:21:53;;;;;;;11.70;5.90;;;10.20;99.90;;;;;;6251599;22;20012;-82
2022/11/13 11:24:32;;;;;;;8.48;5.95;;;10.20;99.80;;;;;;6278659;22;20015;-82
2022/11/13 11:27:05;;;;;;;8.95;6.20;;;10.20;99.60;;;;;;6276651;22;20047;-82
2022/11/13 11:29:40;;;;;;;9.60;5.72;;;10.30;99.60;;;;;;6250994;22;20012;-82
2022/11/13 11:32:14;;;;;;;9.25;5.75;;;10.40;99.50;;;;;;6249863;22;20043;-82
2022/11/13 11:34:54;;;;;;;9.48;5.85;;;10.50;99.40;;;;;;6277708;22;20020;-82
2022/11/13 11:37:25;;;;;;;9.15;5.70;;;10.60;99.10;;;;;;6278389;22;20003;-82
2022/11/13 11:40:00;;;;;;;8.48;5.50;;;10.60;99.20;;;;;;6249461;22;20019;-83
2022/11/13 11:42:44;;;;;;;8.07;5.93;;;10.70;99.00;;;;;;6251005;22;20015;-82
2022/11/13 11:45:29;;;;;;;7.50;5.45;;;10.80;98.90;;;;;;6276799;22;20023;-82
2022/11/13 11:47:57;;;;;;;9.07;5.45;;;10.80;98.70;;;;;;6249982;22;20092;-85
2022/11/13 11:50:35;;;;;;;8.27;5.50;;;10.90;98.50;;;;;;6249748;22;20069;-83
2022/11/13 11:53:35;;;;;;;8.18;5.55;;;11.00;98.40;;;;;;6248667;22;20012;-85
2022/11/13 11:56:19;;;;;;;8.30;5.60;;;11.10;98.40;;;;;;6249649;22;20016;-82
2022/11/13 11:59:19;;;;;;;7.32;5.30;;;11.10;98.60;;;;;;6276625;22;20058;-82
2022/11/13 12:02:26;;;;;;;8.40;4.97;;;11.10;98.50;;;;;;6248996;22;20012;-82
2022/11/13 12:05:03;;;;;;;7.55;4.93;;;11.20;98.50;;;;;;6251816;22;20200;-83
2022/11/13 12:07:45;;;;;;;7.25;4.82;;;11.20;98.50;;;;;;6249412;22;20015;-83
2022/11/13 12:10:32;;;;;;;7.60;4.88;;;11.30;98.40;;;;;;6278623;22;20090;-83
2022/11/13 12:13:36;;;;;;;7.55;4.97;;;11.30;98.30;;;;;;6250979;22;20016;-83
2022/11/13 12:16:08;;;;;;;7.18;5.00;;;11.40;98.10;;;;;;6249458;22;20102;-83
2022/11/13 12:18:42;;;;;;;6.43;4.63;;;11.50;98.20;;;;;;6276773;22;20023;-82
2022/11/13 12:21:10;;;;;;;7.00;4.57;;;11.50;97.90;;;;;;6249370;22;20016;-84
2022/11/13 12:23:44;;;;;;;8.15;4.93;;;11.50;97.90;;;;;;6248943;22;20041;-82
2022/11/13 12:26:31;;;;;;;6.57;4.43;;;11.60;98.00;;;;;;6249792;22;20099;-82
2022/11/13 12:29:15;;;;;;;6.38;4.65;;;11.70;97.80;;;;;;6276101;22;20114;-83
2022/11/13 12:32:21;;;;;;;7.03;4.40;;;11.70;98.00;;;;;;6248759;22;20012;-83
2022/11/13 12:35:18;;;;;;;6.65;4.10;;;11.80;97.80;;;;;;5131334;27;20788;-84
2022/11/13 12:37:49;;;;;;;6.50;4.22;;;11.80;97.40;;;;;;5111470;28;20071;-83
2022/11/13 12:40:33;;;;;;;8.65;4.70;;;11.90;97.40;;;;;;5132442;27;20047;-84
2022/11/13 12:43:17;;;;;;;;;;;11.90;97.30;;;;;;5132980;28;20043;-85
2022/11/13 12:45:50;;;;;;;7.35;4.45;;;12.00;98.00;;;;;;5132200;28;19919;-83
2022/11/13 12:48:19;;;;;;;;;;;12.00;97.40;;;;;;5113326;28;20071;-85
2022/11/13 12:50:56;;;;;;;7.03;4.35;;;12.00;97.90;;;;;;5112470;28;19928;-84
2022/11/13 12:53:29;;;;;;;7.10;4.50;;;12.10;97.00;;;;;;5112333;28;20067;-85
2022/11/13 12:55:59;;;;;;;6.17;4.37;;;12.20;96.70;;;;;;5129745;28;20417;-84
2022/11/13 12:58:31;;;;;;;8.23;4.50;;;12.20;97.00;;;;;;5111895;28;20031;-82
2022/11/13 13:01:01;;;;;;;9.18;4.97;;;12.30;96.50;;;;;;5109601;28;20047;-82